sensor_id;sensor_type;location;lat;lon;timestamp;P1;durP1;ratioP1;P2;durP2;ratioP2
71383;SDS011;61466;52.166;5.004;2022-07-29T00:01:13;164.85;;;156.07;;
71383;SDS011;61466;52.166;5.004;2022-07-29T00:03:40;162.30;;;153.10;;
71383;SDS011;61466;52.166;5.004;2022-07-29T00:06:05;163.43;;;154.30;;
71383;SDS011;61466;52.166;5.004;2022-07-29T00:08:30;168.27;;;159.20;;
71383;SDS011;61466;52.166;5.004;2022-07-29T00:10:56;162.47;;;153.90;;
71383;SDS011;61466;52.166;5.004;2022-07-29T00:13:21;163.30;;;154.70;;
71383;SDS011;61466;52.166;5.004;2022-07-29T00:15:46;162.50;;;153.70;;
71383;SDS011;61466;52.166;5.004;2022-07-29T00:18:12;170.53;;;161.67;;
71383;SDS011;61466;52.166;5.004;2022-07-29T00:20:37;162.23;;;153.63;;
71383;SDS011;61466;52.166;5.004;2022-07-29T00:23:02;158.43;;;149.83;;
71383;SDS011;61466;52.166;5.004;2022-07-29T00:25:28;158.20;;;149.73;;
71383;SDS011;61466;52.166;5.004;2022-07-29T00:27:53;153.37;;;145.13;;
71383;SDS011;61466;52.166;5.004;2022-07-29T00:30:18;163.43;;;154.27;;
71383;SDS011;61466;52.166;5.004;2022-07-29T00:32:44;159.20;;;150.53;;
71383;SDS011;61466;52.166;5.004;2022-07-29T00:35:09;163.53;;;154.43;;
71383;SDS011;61466;52.166;5.004;2022-07-29T00:37:53;158.90;;;150.45;;
71383;SDS011;61466;52.166;5.004;2022-07-29T00:40:18;157.07;;;148.37;;
71383;SDS011;61466;52.166;5.004;2022-07-29T00:42:44;157.03;;;148.60;;
71383;SDS011;61466;52.166;5.004;2022-07-29T00:45:11;153.70;;;145.23;;
71383;SDS011;61466;52.166;5.004;2022-07-29T00:47:37;153.18;;;144.90;;
71383;SDS011;61466;52.166;5.004;2022-07-29T00:50:04;158.00;;;149.63;;
71383;SDS011;61466;52.166;5.004;2022-07-29T00:52:31;165.45;;;156.75;;
71383;SDS011;61466;52.166;5.004;2022-07-29T00:54:58;158.70;;;150.30;;
71383;SDS011;61466;52.166;5.004;2022-07-29T00:57:23;153.03;;;144.87;;
71383;SDS011;61466;52.166;5.004;2022-07-29T00:59:49;154.73;;;146.03;;
71383;SDS011;61466;52.166;5.004;2022-07-29T01:02:14;159.27;;;150.87;;
71383;SDS011;61466;52.166;5.004;2022-07-29T01:04:40;157.38;;;149.02;;
71383;SDS011;61466;52.166;5.004;2022-07-29T01:07:06;161.10;;;152.27;;
71383;SDS011;61466;52.166;5.004;2022-07-29T01:09:32;154.80;;;146.30;;
71383;SDS011;61466;52.166;5.004;2022-07-29T01:11:59;160.93;;;152.35;;
71383;SDS011;61466;52.166;5.004;2022-07-29T01:14:26;160.73;;;151.65;;
71383;SDS011;61466;52.166;5.004;2022-07-29T01:16:59;165.25;;;156.18;;
71383;SDS011;61466;52.166;5.004;2022-07-29T01:27:32;156.93;;;148.40;;
71383;SDS011;61466;52.166;5.004;2022-07-29T01:30:07;153.00;;;144.75;;
71383;SDS011;61466;52.166;5.004;2022-07-29T01:32:33;152.43;;;143.70;;
71383;SDS011;61466;52.166;5.004;2022-07-29T01:35:03;152.98;;;144.80;;
71383;SDS011;61466;52.166;5.004;2022-07-29T01:40:34;153.32;;;144.93;;
71383;SDS011;61466;52.166;5.004;2022-07-29T01:46:09;156.68;;;148.25;;
71383;SDS011;61466;52.166;5.004;2022-07-29T01:48:48;156.02;;;147.45;;
71383;SDS011;61466;52.166;5.004;2022-07-29T01:51:19;152.32;;;144.18;;
71383;SDS011;61466;52.166;5.004;2022-07-29T01:56:51;153.33;;;145.03;;
71383;SDS011;61466;52.166;5.004;2022-07-29T01:59:18;155.45;;;146.50;;
71383;SDS011;61466;52.166;5.004;2022-07-29T02:01:45;157.85;;;149.25;;
71383;SDS011;61466;52.166;5.004;2022-07-29T02:04:13;155.57;;;147.23;;
71383;SDS011;61466;52.166;5.004;2022-07-29T02:06:40;151.10;;;142.65;;
71383;SDS011;61466;52.166;5.004;2022-07-29T02:09:08;154.27;;;145.95;;
71383;SDS011;61466;52.166;5.004;2022-07-29T02:11:37;151.73;;;143.30;;
71383;SDS011;61466;52.166;5.004;2022-07-29T02:14:04;152.70;;;144.50;;
71383;SDS011;61466;52.166;5.004;2022-07-29T02:16:32;148.95;;;140.70;;
71383;SDS011;61466;52.166;5.004;2022-07-29T02:19:00;151.27;;;142.90;;
71383;SDS011;61466;52.166;5.004;2022-07-29T02:21:27;152.52;;;144.40;;
71383;SDS011;61466;52.166;5.004;2022-07-29T02:23:54;153.13;;;144.73;;
71383;SDS011;61466;52.166;5.004;2022-07-29T02:26:23;155.25;;;146.75;;
71383;SDS011;61466;52.166;5.004;2022-07-29T02:28:51;152.38;;;143.82;;
71383;SDS011;61466;52.166;5.004;2022-07-29T02:31:21;153.85;;;145.55;;
71383;SDS011;61466;52.166;5.004;2022-07-29T02:33:50;152.23;;;144.07;;
71383;SDS011;61466;52.166;5.004;2022-07-29T02:36:17;153.23;;;144.95;;
71383;SDS011;61466;52.166;5.004;2022-07-29T02:38:46;154.27;;;145.88;;
71383;SDS011;61466;52.166;5.004;2022-07-29T02:41:16;152.77;;;144.55;;
71383;SDS011;61466;52.166;5.004;2022-07-29T02:43:45;154.75;;;146.25;;
71383;SDS011;61466;52.166;5.004;2022-07-29T02:46:25;158.23;;;149.73;;
71383;SDS011;61466;52.166;5.004;2022-07-29T02:48:56;152.85;;;144.57;;
71383;SDS011;61466;52.166;5.004;2022-07-29T02:51:28;155.98;;;147.68;;
71383;SDS011;61466;52.166;5.004;2022-07-29T02:54:03;160.45;;;151.93;;
71383;SDS011;61466;52.166;5.004;2022-07-29T02:56:32;156.43;;;147.93;;
71383;SDS011;61466;52.166;5.004;2022-07-29T02:59:03;165.43;;;156.33;;
71383;SDS011;61466;52.166;5.004;2022-07-29T03:01:32;157.85;;;149.20;;
71383;SDS011;61466;52.166;5.004;2022-07-29T03:04:00;158.32;;;149.73;;
71383;SDS011;61466;52.166;5.004;2022-07-29T03:06:28;155.45;;;146.95;;
71383;SDS011;61466;52.166;5.004;2022-07-29T03:08:53;156.00;;;147.50;;
71383;SDS011;61466;52.166;5.004;2022-07-29T03:11:20;156.52;;;148.00;;
71383;SDS011;61466;52.166;5.004;2022-07-29T03:13:46;164.15;;;155.35;;
71383;SDS011;61466;52.166;5.004;2022-07-29T03:16:12;159.85;;;151.32;;
71383;SDS011;61466;52.166;5.004;2022-07-29T03:18:39;155.03;;;146.53;;
71383;SDS011;61466;52.166;5.004;2022-07-29T03:21:04;150.63;;;142.13;;
71383;SDS011;61466;52.166;5.004;2022-07-29T03:23:30;153.32;;;144.90;;
71383;SDS011;61466;52.166;5.004;2022-07-29T03:25:56;151.37;;;143.13;;
71383;SDS011;61466;52.166;5.004;2022-07-29T03:28:22;157.10;;;148.68;;
71383;SDS011;61466;52.166;5.004;2022-07-29T03:30:47;153.13;;;144.88;;
71383;SDS011;61466;52.166;5.004;2022-07-29T03:33:14;155.27;;;146.93;;
71383;SDS011;61466;52.166;5.004;2022-07-29T03:35:39;149.48;;;141.23;;
71383;SDS011;61466;52.166;5.004;2022-07-29T03:38:05;155.63;;;147.25;;
71383;SDS011;61466;52.166;5.004;2022-07-29T03:40:31;161.18;;;152.52;;
71383;SDS011;61466;52.166;5.004;2022-07-29T03:43:00;158.63;;;150.10;;
71383;SDS011;61466;52.166;5.004;2022-07-29T03:45:27;157.75;;;149.00;;
71383;SDS011;61466;52.166;5.004;2022-07-29T03:47:56;160.63;;;152.07;;
71383;SDS011;61466;52.166;5.004;2022-07-29T03:50:30;157.05;;;148.63;;
71383;SDS011;61466;52.166;5.004;2022-07-29T03:52:57;158.27;;;149.88;;
71383;SDS011;61466;52.166;5.004;2022-07-29T03:55:23;155.33;;;146.70;;
71383;SDS011;61466;52.166;5.004;2022-07-29T03:57:50;152.60;;;144.23;;
71383;SDS011;61466;52.166;5.004;2022-07-29T04:00:16;154.75;;;146.18;;
71383;SDS011;61466;52.166;5.004;2022-07-29T04:02:42;157.90;;;149.40;;
71383;SDS011;61466;52.166;5.004;2022-07-29T04:05:12;155.73;;;147.10;;
71383;SDS011;61466;52.166;5.004;2022-07-29T04:07:38;157.05;;;148.68;;
71383;SDS011;61466;52.166;5.004;2022-07-29T04:10:04;158.73;;;149.83;;
71383;SDS011;61466;52.166;5.004;2022-07-29T04:12:29;155.07;;;146.80;;
71383;SDS011;61466;52.166;5.004;2022-07-29T04:14:55;156.63;;;147.93;;
71383;SDS011;61466;52.166;5.004;2022-07-29T04:17:20;160.27;;;151.53;;
71383;SDS011;61466;52.166;5.004;2022-07-29T04:19:46;157.87;;;149.33;;
71383;SDS011;61466;52.166;5.004;2022-07-29T04:22:11;159.20;;;150.63;;
71383;SDS011;61466;52.166;5.004;2022-07-29T04:24:36;156.43;;;148.02;;
71383;SDS011;61466;52.166;5.004;2022-07-29T04:27:02;157.50;;;148.87;;
71383;SDS011;61466;52.166;5.004;2022-07-29T04:29:27;159.50;;;151.03;;
71383;SDS011;61466;52.166;5.004;2022-07-29T04:31:52;161.07;;;152.23;;
71383;SDS011;61466;52.166;5.004;2022-07-29T04:34:17;153.10;;;144.50;;
71383;SDS011;61466;52.166;5.004;2022-07-29T04:36:43;153.43;;;145.20;;
71383;SDS011;61466;52.166;5.004;2022-07-29T04:39:08;155.57;;;147.17;;
71383;SDS011;61466;52.166;5.004;2022-07-29T04:41:34;155.43;;;146.85;;
71383;SDS011;61466;52.166;5.004;2022-07-29T04:44:00;158.97;;;150.37;;
71383;SDS011;61466;52.166;5.004;2022-07-29T04:46:29;159.68;;;151.02;;
71383;SDS011;61466;52.166;5.004;2022-07-29T04:48:55;164.27;;;155.57;;
71383;SDS011;61466;52.166;5.004;2022-07-29T04:51:20;160.77;;;152.07;;
71383;SDS011;61466;52.166;5.004;2022-07-29T04:53:45;162.47;;;153.73;;
71383;SDS011;61466;52.166;5.004;2022-07-29T04:56:11;157.07;;;148.27;;
71383;SDS011;61466;52.166;5.004;2022-07-29T04:58:36;157.90;;;148.77;;
71383;SDS011;61466;52.166;5.004;2022-07-29T05:01:02;164.30;;;155.30;;
71383;SDS011;61466;52.166;5.004;2022-07-29T05:03:27;159.68;;;151.00;;
71383;SDS011;61466;52.166;5.004;2022-07-29T05:05:53;162.90;;;154.20;;
71383;SDS011;61466;52.166;5.004;2022-07-29T05:08:18;164.03;;;155.23;;
71383;SDS011;61466;52.166;5.004;2022-07-29T05:10:43;163.10;;;154.33;;
71383;SDS011;61466;52.166;5.004;2022-07-29T05:13:09;166.10;;;157.20;;
71383;SDS011;61466;52.166;5.004;2022-07-29T05:15:35;165.80;;;156.97;;
71383;SDS011;61466;52.166;5.004;2022-07-29T05:18:00;172.00;;;163.00;;
71383;SDS011;61466;52.166;5.004;2022-07-29T05:20:26;170.43;;;161.43;;
71383;SDS011;61466;52.166;5.004;2022-07-29T05:22:54;166.77;;;157.98;;
71383;SDS011;61466;52.166;5.004;2022-07-29T05:25:23;162.27;;;153.13;;
71383;SDS011;61466;52.166;5.004;2022-07-29T05:27:49;162.98;;;154.35;;
71383;SDS011;61466;52.166;5.004;2022-07-29T05:30:14;161.63;;;152.73;;
71383;SDS011;61466;52.166;5.004;2022-07-29T05:32:39;170.37;;;161.07;;
71383;SDS011;61466;52.166;5.004;2022-07-29T05:35:05;164.47;;;155.53;;
71383;SDS011;61466;52.166;5.004;2022-07-29T05:37:31;168.63;;;159.68;;
71383;SDS011;61466;52.166;5.004;2022-07-29T05:39:56;164.77;;;156.00;;
71383;SDS011;61466;52.166;5.004;2022-07-29T05:42:21;160.20;;;151.50;;
71383;SDS011;61466;52.166;5.004;2022-07-29T05:44:47;169.05;;;160.18;;
71383;SDS011;61466;52.166;5.004;2022-07-29T05:47:12;163.55;;;154.75;;
71383;SDS011;61466;52.166;5.004;2022-07-29T05:49:38;162.40;;;153.80;;
71383;SDS011;61466;52.166;5.004;2022-07-29T05:52:03;166.43;;;157.37;;
71383;SDS011;61466;52.166;5.004;2022-07-29T05:54:29;169.23;;;160.13;;
71383;SDS011;61466;52.166;5.004;2022-07-29T05:56:54;175.07;;;165.27;;
71383;SDS011;61466;52.166;5.004;2022-07-29T05:59:19;185.93;;;176.43;;
71383;SDS011;61466;52.166;5.004;2022-07-29T06:01:45;188.63;;;178.83;;
71383;SDS011;61466;52.166;5.004;2022-07-29T06:04:10;190.37;;;180.67;;
71383;SDS011;61466;52.166;5.004;2022-07-29T06:06:35;199.73;;;189.37;;
71383;SDS011;61466;52.166;5.004;2022-07-29T06:09:01;208.30;;;197.93;;
71383;SDS011;61466;52.166;5.004;2022-07-29T06:11:27;205.65;;;195.48;;
71383;SDS011;61466;52.166;5.004;2022-07-29T06:13:53;212.43;;;202.10;;
71383;SDS011;61466;52.166;5.004;2022-07-29T06:16:18;213.25;;;202.88;;
71383;SDS011;61466;52.166;5.004;2022-07-29T06:18:44;220.30;;;209.73;;
71383;SDS011;61466;52.166;5.004;2022-07-29T06:21:09;223.27;;;212.57;;
71383;SDS011;61466;52.166;5.004;2022-07-29T06:23:35;220.47;;;209.67;;
71383;SDS011;61466;52.166;5.004;2022-07-29T06:26:01;224.70;;;214.05;;
71383;SDS011;61466;52.166;5.004;2022-07-29T06:28:27;229.27;;;218.07;;
71383;SDS011;61466;52.166;5.004;2022-07-29T06:30:53;223.77;;;213.07;;
71383;SDS011;61466;52.166;5.004;2022-07-29T06:33:18;225.70;;;214.87;;
71383;SDS011;61466;52.166;5.004;2022-07-29T06:35:44;221.65;;;210.98;;
71383;SDS011;61466;52.166;5.004;2022-07-29T06:38:12;218.10;;;207.65;;
71383;SDS011;61466;52.166;5.004;2022-07-29T06:40:44;218.07;;;207.38;;
71383;SDS011;61466;52.166;5.004;2022-07-29T06:43:32;213.52;;;203.02;;
71383;SDS011;61466;52.166;5.004;2022-07-29T06:46:07;209.15;;;198.85;;
71383;SDS011;61466;52.166;5.004;2022-07-29T06:48:35;213.02;;;202.52;;
71383;SDS011;61466;52.166;5.004;2022-07-29T06:51:04;207.05;;;196.73;;
71383;SDS011;61466;52.166;5.004;2022-07-29T06:53:30;206.65;;;196.57;;
71383;SDS011;61466;52.166;5.004;2022-07-29T06:55:57;206.88;;;196.48;;
71383;SDS011;61466;52.166;5.004;2022-07-29T06:58:24;204.35;;;194.27;;
71383;SDS011;61466;52.166;5.004;2022-07-29T07:00:50;208.32;;;197.90;;
71383;SDS011;61466;52.166;5.004;2022-07-29T07:03:16;206.43;;;196.03;;
71383;SDS011;61466;52.166;5.004;2022-07-29T07:05:42;208.52;;;198.18;;
71383;SDS011;61466;52.166;5.004;2022-07-29T07:08:08;209.87;;;199.43;;
71383;SDS011;61466;52.166;5.004;2022-07-29T07:10:33;215.23;;;204.85;;
71383;SDS011;61466;52.166;5.004;2022-07-29T07:13:00;226.45;;;215.65;;
71383;SDS011;61466;52.166;5.004;2022-07-29T07:15:25;232.90;;;221.73;;
71383;SDS011;61466;52.166;5.004;2022-07-29T07:17:52;248.25;;;236.55;;
71383;SDS011;61466;52.166;5.004;2022-07-29T07:20:17;256.85;;;245.05;;
71383;SDS011;61466;52.166;5.004;2022-07-29T07:22:43;254.53;;;242.77;;
71383;SDS011;61466;52.166;5.004;2022-07-29T07:25:09;256.90;;;245.00;;
71383;SDS011;61466;52.166;5.004;2022-07-29T07:27:35;260.92;;;248.90;;
71383;SDS011;61466;52.166;5.004;2022-07-29T07:30:02;253.50;;;241.55;;
71383;SDS011;61466;52.166;5.004;2022-07-29T07:32:34;256.73;;;244.57;;
71383;SDS011;61466;52.166;5.004;2022-07-29T07:35:00;247.50;;;236.00;;
71383;SDS011;61466;52.166;5.004;2022-07-29T07:37:25;242.97;;;231.57;;
71383;SDS011;61466;52.166;5.004;2022-07-29T07:39:51;249.83;;;238.17;;
71383;SDS011;61466;52.166;5.004;2022-07-29T07:42:18;236.93;;;225.60;;
71383;SDS011;61466;52.166;5.004;2022-07-29T07:44:44;237.23;;;225.93;;
71383;SDS011;61466;52.166;5.004;2022-07-29T07:47:10;234.30;;;223.23;;
71383;SDS011;61466;52.166;5.004;2022-07-29T07:49:36;232.77;;;221.63;;
71383;SDS011;61466;52.166;5.004;2022-07-29T07:52:01;235.88;;;224.55;;
71383;SDS011;61466;52.166;5.004;2022-07-29T07:54:27;233.48;;;222.27;;
71383;SDS011;61466;52.166;5.004;2022-07-29T07:56:52;229.67;;;218.77;;
71383;SDS011;61466;52.166;5.004;2022-07-29T07:59:18;233.23;;;222.23;;
71383;SDS011;61466;52.166;5.004;2022-07-29T08:01:43;227.30;;;216.10;;
71383;SDS011;61466;52.166;5.004;2022-07-29T08:04:08;233.43;;;222.02;;
71383;SDS011;61466;52.166;5.004;2022-07-29T08:06:34;232.90;;;221.88;;
71383;SDS011;61466;52.166;5.004;2022-07-29T08:09:01;247.63;;;235.90;;
71383;SDS011;61466;52.166;5.004;2022-07-29T08:11:27;247.43;;;235.45;;
71383;SDS011;61466;52.166;5.004;2022-07-29T08:13:52;246.90;;;235.20;;
71383;SDS011;61466;52.166;5.004;2022-07-29T08:16:17;252.27;;;240.32;;
71383;SDS011;61466;52.166;5.004;2022-07-29T08:18:44;255.80;;;243.80;;
71383;SDS011;61466;52.166;5.004;2022-07-29T08:21:10;261.63;;;249.30;;
71383;SDS011;61466;52.166;5.004;2022-07-29T08:23:36;250.93;;;239.27;;
71383;SDS011;61466;52.166;5.004;2022-07-29T08:26:10;260.10;;;248.13;;
71383;SDS011;61466;52.166;5.004;2022-07-29T08:28:37;259.60;;;247.50;;
71383;SDS011;61466;52.166;5.004;2022-07-29T08:31:03;274.50;;;262.02;;
71383;SDS011;61466;52.166;5.004;2022-07-29T08:33:28;277.93;;;265.27;;
71383;SDS011;61466;52.166;5.004;2022-07-29T08:35:54;278.93;;;266.00;;
71383;SDS011;61466;52.166;5.004;2022-07-29T08:38:19;285.60;;;272.57;;
71383;SDS011;61466;52.166;5.004;2022-07-29T08:40:45;296.05;;;282.40;;
71383;SDS011;61466;52.166;5.004;2022-07-29T08:43:11;291.93;;;278.87;;
71383;SDS011;61466;52.166;5.004;2022-07-29T08:45:43;294.33;;;280.73;;
71383;SDS011;61466;52.166;5.004;2022-07-29T08:48:17;296.42;;;282.80;;
71383;SDS011;61466;52.166;5.004;2022-07-29T08:50:45;300.40;;;286.88;;
71383;SDS011;61466;52.166;5.004;2022-07-29T08:53:12;304.48;;;290.77;;
71383;SDS011;61466;52.166;5.004;2022-07-29T08:55:40;311.83;;;298.00;;
71383;SDS011;61466;52.166;5.004;2022-07-29T08:58:11;295.40;;;282.07;;
71383;SDS011;61466;52.166;5.004;2022-07-29T09:00:41;301.73;;;287.83;;
71383;SDS011;61466;52.166;5.004;2022-07-29T09:03:15;297.75;;;284.30;;
71383;SDS011;61466;52.166;5.004;2022-07-29T09:05:43;292.50;;;279.08;;
71383;SDS011;61466;52.166;5.004;2022-07-29T09:08:10;287.75;;;274.58;;
71383;SDS011;61466;52.166;5.004;2022-07-29T09:10:36;290.67;;;277.40;;
71383;SDS011;61466;52.166;5.004;2022-07-29T09:13:02;292.27;;;278.92;;
71383;SDS011;61466;52.166;5.004;2022-07-29T09:15:27;292.57;;;279.27;;
71383;SDS011;61466;52.166;5.004;2022-07-29T09:17:53;307.88;;;294.05;;
71383;SDS011;61466;52.166;5.004;2022-07-29T09:20:20;315.90;;;301.80;;
71383;SDS011;61466;52.166;5.004;2022-07-29T09:22:47;299.70;;;286.23;;
71383;SDS011;61466;52.166;5.004;2022-07-29T09:25:14;309.45;;;295.65;;
71383;SDS011;61466;52.166;5.004;2022-07-29T09:28:04;315.80;;;301.75;;
71383;SDS011;61466;52.166;5.004;2022-07-29T09:30:31;318.05;;;304.02;;
71383;SDS011;61466;52.166;5.004;2022-07-29T09:32:57;321.03;;;306.63;;
71383;SDS011;61466;52.166;5.004;2022-07-29T09:35:25;326.75;;;311.92;;
71383;SDS011;61466;52.166;5.004;2022-07-29T09:37:52;323.10;;;308.73;;
71383;SDS011;61466;52.166;5.004;2022-07-29T09:40:18;317.37;;;302.83;;
71383;SDS011;61466;52.166;5.004;2022-07-29T09:42:45;314.70;;;300.20;;
71383;SDS011;61466;52.166;5.004;2022-07-29T09:45:11;317.02;;;302.92;;
71383;SDS011;61466;52.166;5.004;2022-07-29T09:47:55;314.65;;;300.65;;
71383;SDS011;61466;52.166;5.004;2022-07-29T09:50:22;320.23;;;305.77;;
71383;SDS011;61466;52.166;5.004;2022-07-29T09:52:51;327.60;;;312.83;;
71383;SDS011;61466;52.166;5.004;2022-07-29T09:55:18;328.13;;;313.63;;
71383;SDS011;61466;52.166;5.004;2022-07-29T09:57:44;329.33;;;314.83;;
71383;SDS011;61466;52.166;5.004;2022-07-29T10:00:12;324.08;;;309.70;;
71383;SDS011;61466;52.166;5.004;2022-07-29T10:02:43;329.80;;;315.05;;
71383;SDS011;61466;52.166;5.004;2022-07-29T10:05:23;334.35;;;319.67;;
71383;SDS011;61466;52.166;5.004;2022-07-29T10:07:53;331.63;;;316.90;;
71383;SDS011;61466;52.166;5.004;2022-07-29T10:12:51;327.00;;;312.40;;
71383;SDS011;61466;52.166;5.004;2022-07-29T10:15:28;327.70;;;313.05;;
71383;SDS011;61466;52.166;5.004;2022-07-29T10:17:57;324.65;;;310.33;;
71383;SDS011;61466;52.166;5.004;2022-07-29T10:20:23;324.10;;;309.70;;
71383;SDS011;61466;52.166;5.004;2022-07-29T10:22:49;326.75;;;312.30;;
71383;SDS011;61466;52.166;5.004;2022-07-29T10:25:17;325.35;;;310.90;;
71383;SDS011;61466;52.166;5.004;2022-07-29T10:27:43;328.35;;;313.15;;
71383;SDS011;61466;52.166;5.004;2022-07-29T10:30:11;320.07;;;305.67;;
71383;SDS011;61466;52.166;5.004;2022-07-29T10:32:45;318.42;;;304.25;;
71383;SDS011;61466;52.166;5.004;2022-07-29T10:35:40;315.55;;;301.27;;
71383;SDS011;61466;52.166;5.004;2022-07-29T10:43:50;321.77;;;307.40;;
71383;SDS011;61466;52.166;5.004;2022-07-29T10:46:16;316.65;;;302.33;;
71383;SDS011;61466;52.166;5.004;2022-07-29T10:57:13;315.57;;;301.37;;
71383;SDS011;61466;52.166;5.004;2022-07-29T11:05:07;310.13;;;296.02;;
71383;SDS011;61466;52.166;5.004;2022-07-29T11:07:37;318.35;;;304.33;;
71383;SDS011;61466;52.166;5.004;2022-07-29T11:15:04;329.70;;;314.83;;
71383;SDS011;61466;52.166;5.004;2022-07-29T11:18:17;330.58;;;315.73;;
71383;SDS011;61466;52.166;5.004;2022-07-29T11:23:23;336.05;;;321.13;;
71383;SDS011;61466;52.166;5.004;2022-07-29T11:28:49;340.57;;;325.40;;
71383;SDS011;61466;52.166;5.004;2022-07-29T11:31:15;346.73;;;331.08;;
71383;SDS011;61466;52.166;5.004;2022-07-29T11:33:41;339.90;;;324.67;;
71383;SDS011;61466;52.166;5.004;2022-07-29T11:36:08;338.30;;;323.00;;
71383;SDS011;61466;52.166;5.004;2022-07-29T11:38:35;345.70;;;330.05;;
71383;SDS011;61466;52.166;5.004;2022-07-29T11:43:58;337.80;;;322.88;;
71383;SDS011;61466;52.166;5.004;2022-07-29T11:49:18;345.75;;;330.55;;
71383;SDS011;61466;52.166;5.004;2022-07-29T11:51:56;349.05;;;332.98;;
71383;SDS011;61466;52.166;5.004;2022-07-29T11:54:26;349.97;;;334.43;;
71383;SDS011;61466;52.166;5.004;2022-07-29T11:56:56;337.83;;;322.63;;
71383;SDS011;61466;52.166;5.004;2022-07-29T11:59:23;345.15;;;329.92;;
71383;SDS011;61466;52.166;5.004;2022-07-29T12:01:53;341.17;;;325.98;;
71383;SDS011;61466;52.166;5.004;2022-07-29T12:04:19;341.60;;;326.15;;
71383;SDS011;61466;52.166;5.004;2022-07-29T12:06:51;339.93;;;325.03;;
71383;SDS011;61466;52.166;5.004;2022-07-29T12:09:18;343.02;;;327.58;;
71383;SDS011;61466;52.166;5.004;2022-07-29T12:11:44;338.53;;;323.53;;
71383;SDS011;61466;52.166;5.004;2022-07-29T12:14:24;341.02;;;326.02;;
71383;SDS011;61466;52.166;5.004;2022-07-29T12:16:58;344.55;;;329.25;;
71383;SDS011;61466;52.166;5.004;2022-07-29T12:19:25;343.55;;;328.40;;
71383;SDS011;61466;52.166;5.004;2022-07-29T12:21:52;338.40;;;323.35;;
71383;SDS011;61466;52.166;5.004;2022-07-29T12:24:23;336.10;;;321.03;;
71383;SDS011;61466;52.166;5.004;2022-07-29T12:26:52;335.08;;;320.33;;
71383;SDS011;61466;52.166;5.004;2022-07-29T12:29:22;332.63;;;317.67;;
71383;SDS011;61466;52.166;5.004;2022-07-29T12:31:52;331.75;;;316.95;;
71383;SDS011;61466;52.166;5.004;2022-07-29T12:34:24;327.67;;;313.10;;
71383;SDS011;61466;52.166;5.004;2022-07-29T12:36:53;336.42;;;321.45;;
71383;SDS011;61466;52.166;5.004;2022-07-29T12:39:19;332.42;;;317.52;;
71383;SDS011;61466;52.166;5.004;2022-07-29T12:41:45;328.30;;;313.60;;
71383;SDS011;61466;52.166;5.004;2022-07-29T12:44:10;324.97;;;310.33;;
71383;SDS011;61466;52.166;5.004;2022-07-29T12:46:36;335.08;;;320.20;;
71383;SDS011;61466;52.166;5.004;2022-07-29T12:49:02;317.00;;;302.50;;
71383;SDS011;61466;52.166;5.004;2022-07-29T12:51:32;321.57;;;307.20;;
71383;SDS011;61466;52.166;5.004;2022-07-29T12:54:04;315.83;;;301.52;;
71383;SDS011;61466;52.166;5.004;2022-07-29T12:56:30;321.83;;;307.55;;
71383;SDS011;61466;52.166;5.004;2022-07-29T12:58:55;329.13;;;314.33;;
71383;SDS011;61466;52.166;5.004;2022-07-29T13:01:20;329.73;;;315.07;;
71383;SDS011;61466;52.166;5.004;2022-07-29T13:14:10;333.38;;;318.60;;
71383;SDS011;61466;52.166;5.004;2022-07-29T13:17:00;331.47;;;316.63;;
71383;SDS011;61466;52.166;5.004;2022-07-29T13:19:32;335.27;;;320.58;;
71383;SDS011;61466;52.166;5.004;2022-07-29T13:22:05;329.33;;;314.45;;
71383;SDS011;61466;52.166;5.004;2022-07-29T13:24:31;335.75;;;320.67;;
71383;SDS011;61466;52.166;5.004;2022-07-29T13:26:57;331.50;;;316.90;;
71383;SDS011;61466;52.166;5.004;2022-07-29T13:29:22;332.50;;;317.50;;
71383;SDS011;61466;52.166;5.004;2022-07-29T13:31:48;331.65;;;316.85;;
71383;SDS011;61466;52.166;5.004;2022-07-29T13:34:13;331.93;;;317.37;;
71383;SDS011;61466;52.166;5.004;2022-07-29T13:36:38;331.53;;;316.77;;
71383;SDS011;61466;52.166;5.004;2022-07-29T13:39:04;334.37;;;319.63;;
71383;SDS011;61466;52.166;5.004;2022-07-29T13:41:29;325.97;;;311.60;;
71383;SDS011;61466;52.166;5.004;2022-07-29T13:43:55;335.08;;;320.15;;
71383;SDS011;61466;52.166;5.004;2022-07-29T13:46:20;325.60;;;311.10;;
71383;SDS011;61466;52.166;5.004;2022-07-29T13:48:45;324.03;;;308.97;;
71383;SDS011;61466;52.166;5.004;2022-07-29T13:51:11;330.00;;;315.20;;
71383;SDS011;61466;52.166;5.004;2022-07-29T13:53:36;327.13;;;312.67;;
71383;SDS011;61466;52.166;5.004;2022-07-29T13:56:01;328.90;;;314.53;;
71383;SDS011;61466;52.166;5.004;2022-07-29T13:58:27;330.15;;;315.20;;
71383;SDS011;61466;52.166;5.004;2022-07-29T14:00:52;311.57;;;297.67;;
71383;SDS011;61466;52.166;5.004;2022-07-29T14:03:18;313.87;;;299.77;;
71383;SDS011;61466;52.166;5.004;2022-07-29T14:05:43;302.67;;;288.47;;
71383;SDS011;61466;52.166;5.004;2022-07-29T14:08:09;308.98;;;294.88;;
71383;SDS011;61466;52.166;5.004;2022-07-29T14:10:34;301.27;;;287.70;;
71383;SDS011;61466;52.166;5.004;2022-07-29T14:12:59;302.10;;;288.50;;
71383;SDS011;61466;52.166;5.004;2022-07-29T14:15:25;294.70;;;281.37;;
71383;SDS011;61466;52.166;5.004;2022-07-29T14:17:50;288.77;;;275.70;;
71383;SDS011;61466;52.166;5.004;2022-07-29T14:20:15;292.90;;;279.77;;
71383;SDS011;61466;52.166;5.004;2022-07-29T14:22:41;292.73;;;279.60;;
71383;SDS011;61466;52.166;5.004;2022-07-29T14:25:07;288.53;;;275.27;;
71383;SDS011;61466;52.166;5.004;2022-07-29T14:27:33;296.27;;;282.88;;
71383;SDS011;61466;52.166;5.004;2022-07-29T14:29:59;288.67;;;275.60;;
71383;SDS011;61466;52.166;5.004;2022-07-29T14:32:24;291.87;;;278.60;;
71383;SDS011;61466;52.166;5.004;2022-07-29T14:34:49;281.77;;;268.93;;
71383;SDS011;61466;52.166;5.004;2022-07-29T14:37:14;283.63;;;270.60;;
71383;SDS011;61466;52.166;5.004;2022-07-29T14:39:40;287.27;;;274.27;;
71383;SDS011;61466;52.166;5.004;2022-07-29T14:42:05;280.13;;;267.03;;
71383;SDS011;61466;52.166;5.004;2022-07-29T14:44:31;289.73;;;276.45;;
71383;SDS011;61466;52.166;5.004;2022-07-29T14:46:59;294.27;;;281.07;;
71383;SDS011;61466;52.166;5.004;2022-07-29T14:49:28;281.27;;;268.30;;
71383;SDS011;61466;52.166;5.004;2022-07-29T14:51:53;287.67;;;274.58;;
71383;SDS011;61466;52.166;5.004;2022-07-29T14:54:19;285.20;;;271.93;;
71383;SDS011;61466;52.166;5.004;2022-07-29T14:56:44;285.90;;;272.93;;
71383;SDS011;61466;52.166;5.004;2022-07-29T14:59:09;277.85;;;265.13;;
71383;SDS011;61466;52.166;5.004;2022-07-29T15:01:35;276.60;;;262.90;;
71383;SDS011;61466;52.166;5.004;2022-07-29T15:04:01;270.65;;;257.63;;